Time;durP1;ratioP1;P1;durP2;ratioP2;P2;SDS_P1;SDS_P2;PMS_P1;PMS_P2;Temp;Humidity;BMP_temperature;BMP_pressure;BME280_temperature;BME280_humidity;BME280_pressure;Samples;Min_cycle;Max_cycle;Signal;HPM_P1;HPM_P2
2024/03/28 00:00:24;;;;;;;83.40;68.55;;;;;;;;;;5104241;28;20081;-40
2024/03/28 00:02:51;;;;;;;76.32;68.10;;;;;;;;;;5105440;28;20012;-37
2024/03/28 00:05:17;;;;;;;87.60;66.60;;;;;;;;;;5105626;28;20073;-41
2024/03/28 00:07:44;;;;;;;86.43;66.80;;;;;;;;;;5105175;28;20020;-43
2024/03/28 00:10:11;;;;;;;85.63;62.25;;;;;;;;;;5105251;28;20023;-46
2024/03/28 00:12:37;;;;;;;80.15;62.72;;;;;;;;;;5105053;28;20020;-41
2024/03/28 00:15:04;;;;;;;88.80;61.80;;;;;;;;;;5104935;28;20030;-45
2024/03/28 00:17:32;;;;;;;80.20;61.42;;;;;;;;;;5104818;28;20315;-39
2024/03/28 00:19:58;;;;;;;76.78;60.40;;;;;;;;;;5105309;28;20043;-40
2024/03/28 00:22:25;;;;;;;73.10;60.22;;;;;;;;;;5104907;28;20016;-46
2024/03/28 00:24:52;;;;;;;75.65;60.72;;;;;;;;;;5105166;28;20082;-43
2024/03/28 00:27:18;;;;;;;76.72;61.50;;;;;;;;;;5104936;28;20035;-46
2024/03/28 00:29:45;;;;;;;72.22;60.30;;;;;;;;;;5104891;28;20048;-43
2024/03/28 00:32:11;;;;;;;72.35;59.95;;;;;;;;;;5104878;28;20069;-42
2024/03/28 00:34:38;;;;;;;74.50;60.38;;;;;;;;;;5105265;28;20104;-39
2024/03/28 00:37:04;;;;;;;70.47;60.78;;;;;;;;;;5104726;28;20024;-38
2024/03/28 00:39:31;;;;;;;75.50;60.08;;;;;;;;;;5104819;28;20027;-42
2024/03/28 00:41:57;;;;;;;74.20;62.00;;;;;;;;;;5104697;28;20024;-37
2024/03/28 00:44:24;;;;;;;67.95;60.63;;;;;;;;;;5104721;28;20024;-38
2024/03/28 00:46:51;;;;;;;67.28;59.90;;;;;;;;;;5104508;28;20028;-41
2024/03/28 00:49:17;;;;;;;70.15;62.70;;;;;;;;;;5104029;28;20039;-47
2024/03/28 00:51:47;;;;;;;69.65;60.15;;;;;;;;;;5104532;28;20047;-43
2024/03/28 00:54:13;;;;;;;72.40;61.00;;;;;;;;;;5104206;28;20028;-48
2024/03/28 00:56:40;;;;;;;67.60;60.80;;;;;;;;;;5104096;28;20069;-44
2024/03/28 00:59:07;;;;;;;66.47;59.85;;;;;;;;;;5104129;28;20328;-42
2024/03/28 01:01:33;;;;;;;67.05;60.63;;;;;;;;;;5104173;28;20307;-46
2024/03/28 01:04:00;;;;;;;69.53;62.20;;;;;;;;;;5104138;28;20307;-47
2024/03/28 01:06:26;;;;;;;67.95;61.28;;;;;;;;;;5104144;28;20333;-46
2024/03/28 01:08:53;;;;;;;68.88;60.67;;;;;;;;;;5104338;28;20028;-42
2024/03/28 01:11:19;;;;;;;68.75;61.97;;;;;;;;;;5104318;28;20024;-44
2024/03/28 01:13:46;;;;;;;68.10;61.08;;;;;;;;;;5104244;28;20038;-50
2024/03/28 01:16:12;;;;;;;79.45;72.18;;;;;;;;;;5104855;28;20316;-43
2024/03/28 01:18:39;;;;;;;78.00;70.75;;;;;;;;;;5104121;28;20055;-50
2024/03/28 01:21:06;;;;;;;74.40;67.30;;;;;;;;;;5104224;28;20024;-46
2024/03/28 01:23:32;;;;;;;74.68;67.28;;;;;;;;;;5104121;28;20234;-44
2024/03/28 01:26:02;;;;;;;78.53;70.85;;;;;;;;;;5103955;28;20020;-41
2024/03/28 01:28:29;;;;;;;80.85;72.90;;;;;;;;;;5104336;28;20020;-45
2024/03/28 01:31:01;;;;;;;81.60;73.78;;;;;;;;;;5103795;28;20059;-46
2024/03/28 01:33:28;;;;;;;87.47;78.70;;;;;;;;;;5103820;28;20024;-48
2024/03/28 01:35:55;;;;;;;88.30;79.72;;;;;;;;;;5103947;28;20016;-47
2024/03/28 01:38:22;;;;;;;90.32;81.40;;;;;;;;;;5103707;28;20240;-44
2024/03/28 01:40:50;;;;;;;92.97;82.93;;;;;;;;;;5103672;28;20039;-48
2024/03/28 01:43:16;;;;;;;91.97;82.72;;;;;;;;;;5104005;28;20023;-42
2024/03/28 01:45:44;;;;;;;91.20;82.10;;;;;;;;;;5103861;28;20315;-44
2024/03/28 01:48:11;;;;;;;89.55;79.97;;;;;;;;;;5103711;28;20027;-43
2024/03/28 01:50:37;;;;;;;87.70;78.05;;;;;;;;;;5103786;28;20240;-42
2024/03/28 01:53:04;;;;;;;84.47;75.35;;;;;;;;;;5103774;28;20012;-43
2024/03/28 01:55:31;;;;;;;86.53;73.00;;;;;;;;;;5104008;28;20040;-46
2024/03/28 01:58:00;;;;;;;112.68;73.05;;;;;;;;;;5103748;28;20066;-48
2024/03/28 02:00:27;;;;;;;93.53;72.18;;;;;;;;;;5104002;28;20069;-41
2024/03/28 02:02:54;;;;;;;87.30;70.60;;;;;;;;;;5103639;28;20019;-39
2024/03/28 02:05:22;;;;;;;104.90;72.70;;;;;;;;;;5104383;28;20049;-37
2024/03/28 02:07:48;;;;;;;102.97;72.82;;;;;;;;;;5107533;28;20114;-35
2024/03/28 02:10:15;;;;;;;87.70;68.40;;;;;;;;;;5107812;28;20109;-43
2024/03/28 02:12:42;;;;;;;85.40;76.53;;;;;;;;;;5105641;28;20034;-36
2024/03/28 02:15:08;;;;;;;84.63;75.40;;;;;;;;;;5107105;28;20054;-38
2024/03/28 02:17:46;;;;;;;82.03;74.03;;;;;;;;;;5107094;28;20019;-37
2024/03/28 02:20:12;;;;;;;81.88;73.72;;;;;;;;;;5107487;28;20054;-37
2024/03/28 02:22:39;;;;;;;85.82;77.35;;;;;;;;;;5107231;28;20020;-37
2024/03/28 02:25:07;;;;;;;103.63;92.57;;;;;;;;;;5106328;28;20039;-43
2024/03/28 02:27:37;;;;;;;100.70;88.90;;;;;;;;;;5107145;28;20012;-39
2024/03/28 02:30:13;;;;;;;92.38;82.60;;;;;;;;;;5100082;28;20051;-41
2024/03/28 02:32:40;;;;;;;86.20;76.88;;;;;;;;;;5086774;28;20028;-45
2024/03/28 02:35:07;;;;;;;86.78;77.97;;;;;;;;;;5096130;28;20307;-39
2024/03/28 02:37:34;;;;;;;88.68;79.32;;;;;;;;;;5097972;28;20029;-42
2024/03/28 02:40:01;;;;;;;87.45;78.57;;;;;;;;;;5094813;28;20047;-47
2024/03/28 02:42:28;;;;;;;88.13;79.72;;;;;;;;;;5107221;28;20019;-38
2024/03/28 02:44:55;;;;;;;85.97;77.25;;;;;;;;;;5106101;28;20320;-41
2024/03/28 02:47:22;;;;;;;84.00;75.70;;;;;;;;;;5097906;28;20234;-37
2024/03/28 02:49:48;;;;;;;84.03;75.63;;;;;;;;;;5086888;28;20032;-40
2024/03/28 02:52:15;;;;;;;81.20;73.05;;;;;;;;;;5098174;28;20032;-45
2024/03/28 02:54:42;;;;;;;85.20;77.28;;;;;;;;;;5097652;28;20035;-39
2024/03/28 02:57:08;;;;;;;75.55;68.38;;;;;;;;;;5086406;28;20338;-38
2024/03/28 02:59:35;;;;;;;74.68;67.22;;;;;;;;;;5085809;28;20391;-38
2024/03/28 03:02:01;;;;;;;68.93;62.55;;;;;;;;;;5086280;28;20212;-38
2024/03/28 03:04:28;;;;;;;65.10;58.70;;;;;;;;;;5086400;28;20078;-38
2024/03/28 03:06:54;;;;;;;62.35;56.63;;;;;;;;;;5095104;28;20244;-42
2024/03/28 03:09:21;;;;;;;61.05;55.42;;;;;;;;;;5087805;28;20200;-38
2024/03/28 03:11:47;;;;;;;61.75;55.90;;;;;;;;;;5086147;28;20250;-38
2024/03/28 03:14:14;;;;;;;60.88;55.03;;;;;;;;;;5086289;28;20207;-41
2024/03/28 03:16:41;;;;;;;62.17;56.28;;;;;;;;;;5085988;28;20043;-38
2024/03/28 03:19:07;;;;;;;60.13;54.42;;;;;;;;;;5085938;28;20116;-39
2024/03/28 03:21:35;;;;;;;62.10;56.10;;;;;;;;;;5085723;28;20076;-40
2024/03/28 03:24:02;;;;;;;62.15;56.45;;;;;;;;;;5085846;28;20027;-39
2024/03/28 03:26:34;;;;;;;61.78;56.20;;;;;;;;;;5085737;28;20024;-50
2024/03/28 03:34:39;;;;;;;59.47;53.90;;;;;;;;;;5085733;28;20082;-38
2024/03/28 03:37:10;;;;;;;60.95;55.30;;;;;;;;;;5085563;28;20024;-39
2024/03/28 03:39:37;;;;;;;61.00;55.20;;;;;;;;;;5085534;28;20047;-42
2024/03/28 03:42:04;;;;;;;60.33;54.72;;;;;;;;;;5085461;28;20020;-47
2024/03/28 03:44:30;;;;;;;61.63;56.03;;;;;;;;;;5096325;28;20096;-49
2024/03/28 03:46:57;;;;;;;59.92;54.35;;;;;;;;;;5085788;28;20020;-45
2024/03/28 03:49:23;;;;;;;60.05;54.20;;;;;;;;;;5101269;28;20028;-45
2024/03/28 03:51:50;;;;;;;58.08;52.70;;;;;;;;;;5095145;28;20012;-41
2024/03/28 03:54:16;;;;;;;58.03;52.72;;;;;;;;;;5095553;28;20028;-40
2024/03/28 03:56:43;;;;;;;59.38;53.88;;;;;;;;;;5093865;28;20012;-40
2024/03/28 03:59:10;;;;;;;58.65;53.35;;;;;;;;;;5095207;28;20158;-38
2024/03/28 04:01:36;;;;;;;59.85;54.45;;;;;;;;;;5095090;28;20020;-40
2024/03/28 04:04:03;;;;;;;57.03;51.63;;;;;;;;;;5093549;28;20024;-40
2024/03/28 04:06:30;;;;;;;56.65;51.22;;;;;;;;;;5094812;28;20189;-39
2024/03/28 04:08:56;;;;;;;55.65;50.67;;;;;;;;;;5095151;28;20032;-44
2024/03/28 04:11:23;;;;;;;54.92;50.15;;;;;;;;;;5093315;28;20017;-42
2024/03/28 04:13:50;;;;;;;57.67;52.17;;;;;;;;;;5094669;28;20066;-44
2024/03/28 04:16:16;;;;;;;55.83;50.58;;;;;;;;;;5094773;28;20022;-47
2024/03/28 04:18:43;;;;;;;54.80;49.70;;;;;;;;;;5093006;28;20024;-38
2024/03/28 04:21:09;;;;;;;53.13;48.35;;;;;;;;;;5094780;28;20031;-48
2024/03/28 04:23:36;;;;;;;54.17;49.28;;;;;;;;;;5094554;28;20353;-40
2024/03/28 04:26:03;;;;;;;52.33;47.50;;;;;;;;;;5092936;28;20260;-43
2024/03/28 04:28:29;;;;;;;52.90;47.92;;;;;;;;;;5093924;28;20016;-42
2024/03/28 04:30:56;;;;;;;51.60;46.90;;;;;;;;;;5094368;28;20029;-42
2024/03/28 04:33:22;;;;;;;51.30;46.55;;;;;;;;;;5092872;28;20021;-42
2024/03/28 04:35:49;;;;;;;51.50;46.88;;;;;;;;;;5092929;28;20019;-38
2024/03/28 04:38:16;;;;;;;53.30;48.50;;;;;;;;;;5096907;28;20062;-41
2024/03/28 04:40:42;;;;;;;52.58;47.92;;;;;;;;;;5092991;28;20378;-38
2024/03/28 04:43:10;;;;;;;50.28;45.95;;;;;;;;;;5083146;28;20083;-40
2024/03/28 04:45:37;;;;;;;53.60;48.42;;;;;;;;;;5084125;28;20089;-42
2024/03/28 04:48:03;;;;;;;52.30;47.40;;;;;;;;;;5083899;28;20039;-43
2024/03/28 04:50:30;;;;;;;50.58;46.08;;;;;;;;;;5103558;28;20036;-39
2024/03/28 04:52:57;;;;;;;51.30;46.70;;;;;;;;;;5104571;28;20047;-47
2024/03/28 04:55:23;;;;;;;51.15;46.63;;;;;;;;;;5104749;28;20028;-42
2024/03/28 04:57:50;;;;;;;51.55;46.85;;;;;;;;;;5104444;28;20016;-39
2024/03/28 05:00:16;;;;;;;52.10;47.25;;;;;;;;;;5104251;28;20040;-41
2024/03/28 05:02:43;;;;;;;52.20;47.55;;;;;;;;;;5104203;28;20177;-49
2024/03/28 05:05:11;;;;;;;52.35;47.55;;;;;;;;;;5104787;28;20258;-39
2024/03/28 05:07:37;;;;;;;53.38;48.45;;;;;;;;;;5104123;28;20337;-39
2024/03/28 05:10:07;;;;;;;52.50;47.80;;;;;;;;;;5104509;28;20200;-42
2024/03/28 05:12:34;;;;;;;52.53;47.72;;;;;;;;;;5104284;28;20319;-39
2024/03/28 05:15:03;;;;;;;54.08;49.03;;;;;;;;;;5104622;28;20043;-41
2024/03/28 05:17:30;;;;;;;53.45;48.55;;;;;;;;;;5103950;28;20016;-40
2024/03/28 05:19:56;;;;;;;53.30;48.50;;;;;;;;;;5104401;28;20036;-47
2024/03/28 05:22:23;;;;;;;53.55;48.67;;;;;;;;;;5104107;28;20307;-44
2024/03/28 05:24:50;;;;;;;53.63;48.75;;;;;;;;;;5104193;28;20330;-38
2024/03/28 05:27:16;;;;;;;52.42;47.70;;;;;;;;;;5104149;28;20311;-39
2024/03/28 05:29:43;;;;;;;53.55;48.75;;;;;;;;;;5103925;28;20217;-45
2024/03/28 05:32:10;;;;;;;52.03;47.33;;;;;;;;;;5103895;28;20039;-47
2024/03/28 05:34:36;;;;;;;51.42;46.90;;;;;;;;;;5103856;28;20043;-41
2024/03/28 05:37:03;;;;;;;53.75;48.75;;;;;;;;;;5104015;28;20022;-41
2024/03/28 05:39:29;;;;;;;53.17;48.25;;;;;;;;;;5103998;28;20032;-42
2024/03/28 05:41:56;;;;;;;53.05;48.35;;;;;;;;;;5107189;28;20036;-39
2024/03/28 05:44:22;;;;;;;53.40;48.72;;;;;;;;;;5108278;28;20027;-43
2024/03/28 05:46:50;;;;;;;53.65;48.88;;;;;;;;;;5107876;28;20088;-39
2024/03/28 05:49:16;;;;;;;56.88;51.60;;;;;;;;;;5107961;28;20032;-46
2024/03/28 05:51:43;;;;;;;57.50;52.00;;;;;;;;;;5107972;28;20026;-43
2024/03/28 05:54:09;;;;;;;56.20;51.00;;;;;;;;;;5108037;28;20207;-39
2024/03/28 05:56:36;;;;;;;56.75;51.53;;;;;;;;;;5107667;28;20315;-38
2024/03/28 05:59:02;;;;;;;55.50;50.50;;;;;;;;;;5107690;28;20277;-39
2024/03/28 06:01:29;;;;;;;57.28;52.00;;;;;;;;;;5107693;28;20020;-41
2024/03/28 06:03:56;;;;;;;57.30;51.97;;;;;;;;;;5107467;28;20028;-41
2024/03/28 06:06:23;;;;;;;58.63;53.05;;;;;;;;;;5107482;28;20087;-48
2024/03/28 06:08:49;;;;;;;58.70;53.35;;;;;;;;;;5107651;28;20031;-38
2024/03/28 06:11:16;;;;;;;58.70;53.20;;;;;;;;;;5107354;28;20031;-42
2024/03/28 06:13:43;;;;;;;56.50;51.35;;;;;;;;;;5107305;28;20035;-42
2024/03/28 06:16:09;;;;;;;55.70;50.47;;;;;;;;;;5107405;28;20079;-44
2024/03/28 06:18:36;;;;;;;56.58;51.30;;;;;;;;;;5101545;28;20024;-44
2024/03/28 06:21:04;;;;;;;56.38;51.22;;;;;;;;;;5095853;28;20024;-41
2024/03/28 06:23:31;;;;;;;59.15;53.65;;;;;;;;;;5086947;28;20040;-37
2024/03/28 06:25:57;;;;;;;59.20;53.67;;;;;;;;;;5086692;28;20067;-45
2024/03/28 06:28:24;;;;;;;56.50;51.30;;;;;;;;;;5086891;28;20021;-39
2024/03/28 06:30:53;;;;;;;57.17;51.67;;;;;;;;;;5086661;28;20048;-45
2024/03/28 06:33:20;;;;;;;56.95;51.58;;;;;;;;;;5086537;28;20339;-42
2024/03/28 06:35:47;;;;;;;58.13;52.55;;;;;;;;;;5086778;28;20020;-39
2024/03/28 06:38:14;;;;;;;58.08;52.45;;;;;;;;;;5086828;28;20016;-43
2024/03/28 06:40:41;;;;;;;58.40;52.95;;;;;;;;;;5086381;28;20028;-39
2024/03/28 06:43:07;;;;;;;59.90;54.20;;;;;;;;;;5086643;28;20307;-46
2024/03/28 06:45:34;;;;;;;61.17;55.25;;;;;;;;;;5086594;28;20035;-43
2024/03/28 06:48:00;;;;;;;60.08;54.30;;;;;;;;;;5086279;28;20083;-43
2024/03/28 06:50:27;;;;;;;58.17;52.72;;;;;;;;;;5086921;28;20066;-46
2024/03/28 06:52:53;;;;;;;59.28;53.63;;;;;;;;;;5085996;28;20031;-48
2024/03/28 06:55:20;;;;;;;57.20;51.90;;;;;;;;;;5086663;28;20047;-41
2024/03/28 06:57:47;;;;;;;57.67;52.50;;;;;;;;;;5086296;28;20279;-43
2024/03/28 07:00:14;;;;;;;58.13;52.80;;;;;;;;;;5086594;28;20267;-41
2024/03/28 07:02:40;;;;;;;61.63;55.67;;;;;;;;;;5086152;28;20335;-48
2024/03/28 07:05:07;;;;;;;57.30;52.03;;;;;;;;;;5086642;28;20411;-39
2024/03/28 07:07:34;;;;;;;56.88;51.47;;;;;;;;;;5086401;28;20028;-40
2024/03/28 07:10:01;;;;;;;57.83;52.45;;;;;;;;;;5086453;28;20028;-39
2024/03/28 07:12:27;;;;;;;58.30;52.65;;;;;;;;;;5085965;28;20036;-40
2024/03/28 07:14:54;;;;;;;55.72;50.78;;;;;;;;;;5086325;28;20025;-44
2024/03/28 07:17:20;;;;;;;56.17;50.97;;;;;;;;;;5085872;28;20020;-42
2024/03/28 07:19:47;;;;;;;57.45;52.17;;;;;;;;;;5085921;28;20047;-37
2024/03/28 07:22:13;;;;;;;55.70;50.42;;;;;;;;;;5085868;28;20070;-40
2024/03/28 07:24:40;;;;;;;54.97;49.83;;;;;;;;;;5086134;28;20087;-43
2024/03/28 07:27:07;;;;;;;54.22;49.17;;;;;;;;;;5085594;28;20021;-40
2024/03/28 07:29:33;;;;;;;55.55;50.55;;;;;;;;;;5085385;28;20053;-41
2024/03/28 07:32:00;;;;;;;57.13;51.95;;;;;;;;;;5085671;28;20017;-41
2024/03/28 07:34:26;;;;;;;54.85;49.78;;;;;;;;;;5085389;28;20032;-37
2024/03/28 07:36:53;;;;;;;57.00;51.78;;;;;;;;;;5093831;28;20034;-39
2024/03/28 07:39:22;;;;;;;54.72;49.55;;;;;;;;;;5088720;28;20028;-39
2024/03/28 07:41:50;;;;;;;53.92;49.08;;;;;;;;;;5085247;28;20320;-41
2024/03/28 07:44:16;;;;;;;56.95;51.75;;;;;;;;;;5085528;28;20039;-45
2024/03/28 07:46:43;;;;;;;55.92;50.72;;;;;;;;;;5085374;28;20088;-44
2024/03/28 07:49:10;;;;;;;55.92;50.92;;;;;;;;;;5085324;28;20032;-42
2024/03/28 07:51:36;;;;;;;56.13;51.03;;;;;;;;;;5085154;28;20021;-46
2024/03/28 07:54:03;;;;;;;55.90;50.90;;;;;;;;;;5085390;28;20087;-43
2024/03/28 07:56:30;;;;;;;56.45;51.28;;;;;;;;;;5084988;28;20093;-40
2024/03/28 07:58:57;;;;;;;55.40;50.35;;;;;;;;;;5085289;28;20079;-41
2024/03/28 08:01:23;;;;;;;56.97;51.55;;;;;;;;;;5085065;28;20035;-44
2024/03/28 08:03:50;;;;;;;54.75;49.75;;;;;;;;;;5084125;28;20020;-40
2024/03/28 08:06:16;;;;;;;54.83;49.78;;;;;;;;;;5085008;28;20024;-41
2024/03/28 08:08:43;;;;;;;53.95;48.80;;;;;;;;;;5084999;28;20020;-42
2024/03/28 08:11:10;;;;;;;56.00;50.75;;;;;;;;;;5084751;28;20043;-44
2024/03/28 08:13:36;;;;;;;53.72;48.53;;;;;;;;;;5085069;28;20042;-46
2024/03/28 08:16:03;;;;;;;54.05;49.15;;;;;;;;;;5084824;28;20021;-40
2024/03/28 08:18:29;;;;;;;53.70;48.72;;;;;;;;;;5084584;28;20347;-40
2024/03/28 08:20:57;;;;;;;54.80;49.60;;;;;;;;;;5084680;28;20231;-39
2024/03/28 08:23:24;;;;;;;55.20;49.80;;;;;;;;;;5083390;28;20047;-39
2024/03/28 08:25:50;;;;;;;55.15;50.28;;;;;;;;;;5084456;28;20024;-41
2024/03/28 08:28:18;;;;;;;54.05;48.88;;;;;;;;;;5084585;28;20078;-40
2024/03/28 08:30:45;;;;;;;54.15;49.03;;;;;;;;;;5084389;28;20056;-44
2024/03/28 08:33:11;;;;;;;54.65;49.22;;;;;;;;;;5084291;28;20031;-47
2024/03/28 08:35:41;;;;;;;54.72;49.58;;;;;;;;;;5084350;28;20029;-40
2024/03/28 08:38:09;;;;;;;54.72;49.53;;;;;;;;;;5084603;28;20126;-38
2024/03/28 08:40:38;;;;;;;56.22;51.08;;;;;;;;;;5084197;28;20025;-37
2024/03/28 08:43:05;;;;;;;54.60;49.53;;;;;;;;;;5084413;28;20012;-36
2024/03/28 08:45:35;;;;;;;55.65;50.28;;;;;;;;;;5084708;28;20020;-38
2024/03/28 08:48:03;;;;;;;55.85;50.65;;;;;;;;;;5084054;28;20062;-42
2024/03/28 08:50:29;;;;;;;54.83;49.58;;;;;;;;;;5084606;28;20032;-44
2024/03/28 08:52:56;;;;;;;55.90;50.83;;;;;;;;;;5084226;28;20123;-41
2024/03/28 08:55:24;;;;;;;56.13;50.83;;;;;;;;;;5084505;28;20047;-39
2024/03/28 08:57:51;;;;;;;55.53;50.33;;;;;;;;;;5084082;28;20035;-41
2024/03/28 09:00:19;;;;;;;55.90;50.58;;;;;;;;;;5084358;28;20029;-40
2024/03/28 09:02:46;;;;;;;57.03;51.80;;;;;;;;;;5083935;28;20044;-38
2024/03/28 09:05:15;;;;;;;55.28;50.25;;;;;;;;;;5084394;28;20024;-37
2024/03/28 09:07:42;;;;;;;56.90;51.42;;;;;;;;;;5099645;28;20066;-41
2024/03/28 09:10:09;;;;;;;55.35;50.45;;;;;;;;;;5104510;28;20028;-38
2024/03/28 09:12:37;;;;;;;56.80;51.45;;;;;;;;;;5104123;28;20031;-45
2024/03/28 09:15:04;;;;;;;55.13;49.95;;;;;;;;;;5104351;28;20034;-42
2024/03/28 09:17:30;;;;;;;55.67;50.47;;;;;;;;;;5104027;28;20031;-41
2024/03/28 09:19:57;;;;;;;56.53;51.33;;;;;;;;;;5104417;28;20065;-39
2024/03/28 09:22:24;;;;;;;57.35;51.97;;;;;;;;;;5104120;28;20016;-39
2024/03/28 09:24:50;;;;;;;55.75;50.72;;;;;;;;;;5104244;28;20024;-39
2024/03/28 09:27:18;;;;;;;56.53;51.13;;;;;;;;;;5103812;28;20076;-41
2024/03/28 09:29:45;;;;;;;55.35;49.92;;;;;;;;;;5104048;28;20070;-51
2024/03/28 09:32:15;;;;;;;54.33;49.10;;;;;;;;;;5103902;28;20016;-38
2024/03/28 09:34:41;;;;;;;54.22;49.33;;;;;;;;;;5104002;28;20032;-43
2024/03/28 09:37:08;;;;;;;54.72;49.42;;;;;;;;;;5104010;28;20061;-42
2024/03/28 09:39:35;;;;;;;55.28;50.17;;;;;;;;;;5103956;28;20042;-39
2024/03/28 09:42:03;;;;;;;54.80;49.50;;;;;;;;;;5104065;28;20020;-43
2024/03/28 09:44:35;;;;;;;54.72;49.47;;;;;;;;;;5104064;28;20035;-40
2024/03/28 09:47:02;;;;;;;53.45;48.30;;;;;;;;;;5103704;28;20012;-48
2024/03/28 09:49:30;;;;;;;53.47;48.28;;;;;;;;;;5103987;28;20327;-39
2024/03/28 09:51:58;;;;;;;53.33;48.15;;;;;;;;;;5103784;28;20091;-38
2024/03/28 09:54:25;;;;;;;53.50;48.28;;;;;;;;;;5103908;28;20024;-43
2024/03/28 09:56:53;;;;;;;53.10;47.97;;;;;;;;;;5103715;28;20343;-39
2024/03/28 09:59:20;;;;;;;52.22;47.50;;;;;;;;;;5103542;28;20091;-40
2024/03/28 10:01:47;;;;;;;53.38;48.22;;;;;;;;;;5103480;28;20012;-42
2024/03/28 10:04:14;;;;;;;50.65;45.92;;;;;;;;;;5103922;28;20048;-39
2024/03/28 10:06:50;;;;;;;53.42;48.33;;;;;;;;;;5103766;28;20023;-39
2024/03/28 10:09:17;;;;;;;52.35;47.25;;;;;;;;;;5103751;28;20051;-40
2024/03/28 10:11:44;;;;;;;50.55;45.53;;;;;;;;;;5103851;28;20027;-41
2024/03/28 10:14:14;;;;;;;51.35;46.22;;;;;;;;;;5103762;28;20031;-42
2024/03/28 10:16:48;;;;;;;51.80;46.83;;;;;;;;;;5103683;28;20028;-44
2024/03/28 10:19:29;;;;;;;53.45;48.25;;;;;;;;;;5103637;28;20044;-43
2024/03/28 10:22:08;;;;;;;51.45;46.13;;;;;;;;;;5103451;28;20129;-44
2024/03/28 10:24:34;;;;;;;52.35;47.35;;;;;;;;;;5103821;28;20225;-45
2024/03/28 10:27:01;;;;;;;52.97;47.63;;;;;;;;;;5104841;28;20042;-45
2024/03/28 10:29:31;;;;;;;55.08;48.13;;;;;;;;;;5107148;28;20074;-43
2024/03/28 10:32:07;;;;;;;53.85;48.47;;;;;;;;;;5107458;28;20334;-47
2024/03/28 10:34:33;;;;;;;53.50;48.35;;;;;;;;;;5107310;28;20043;-41
2024/03/28 10:37:07;;;;;;;56.00;49.35;;;;;;;;;;5107141;28;20024;-47
2024/03/28 10:39:33;;;;;;;54.30;48.15;;;;;;;;;;5106998;28;20036;-43
2024/03/28 10:42:01;;;;;;;54.17;48.63;;;;;;;;;;5107041;28;20037;-48
2024/03/28 10:44:30;;;;;;;54.05;48.63;;;;;;;;;;5106726;28;20062;-38
2024/03/28 10:46:57;;;;;;;56.28;50.40;;;;;;;;;;5106703;28;20083;-41
2024/03/28 10:49:32;;;;;;;56.38;50.22;;;;;;;;;;5107024;28;20028;-44
2024/03/28 10:52:02;;;;;;;66.80;51.70;;;;;;;;;;5106645;28;20069;-42
2024/03/28 10:54:36;;;;;;;58.10;51.97;;;;;;;;;;5106701;28;20259;-41
2024/03/28 10:57:05;;;;;;;59.72;53.60;;;;;;;;;;5106730;28;20043;-56
2024/03/28 10:59:32;;;;;;;60.50;54.22;;;;;;;;;;5106682;28;20046;-40
2024/03/28 11:01:59;;;;;;;59.15;53.05;;;;;;;;;;5106436;28;20016;-37
2024/03/28 11:04:26;;;;;;;75.88;55.15;;;;;;;;;;5106255;28;20028;-41
2024/03/28 11:06:55;;;;;;;81.30;55.13;;;;;;;;;;5104683;28;20012;-41
2024/03/28 11:09:23;;;;;;;59.78;53.28;;;;;;;;;;5105309;28;20062;-45
2024/03/28 11:11:52;;;;;;;72.20;53.00;;;;;;;;;;5105645;28;20129;-41
2024/03/28 11:14:19;;;;;;;62.05;53.95;;;;;;;;;;5104678;28;20051;-41
2024/03/28 11:16:46;;;;;;;61.80;51.88;;;;;;;;;;5104910;28;20200;-42
2024/03/28 11:19:16;;;;;;;60.60;52.47;;;;;;;;;;5104639;28;20028;-42
2024/03/28 11:21:43;;;;;;;59.50;52.97;;;;;;;;;;5104480;28;20075;-41
2024/03/28 11:24:19;;;;;;;58.38;51.97;;;;;;;;;;5104769;28;20088;-41
2024/03/28 11:26:53;;;;;;;57.53;51.63;;;;;;;;;;5104855;28;20020;-45
2024/03/28 11:29:23;;;;;;;58.53;52.15;;;;;;;;;;5105900;28;20044;-40
2024/03/28 11:31:57;;;;;;;57.10;51.17;;;;;;;;;;5106047;28;20030;-41
2024/03/28 11:34:30;;;;;;;83.18;54.22;;;;;;;;;;5105672;28;20220;-44
2024/03/28 11:36:58;;;;;;;59.80;53.28;;;;;;;;;;5105952;28;20020;-41
2024/03/28 11:39:27;;;;;;;63.42;54.20;;;;;;;;;;5105955;28;20215;-47
2024/03/28 11:41:54;;;;;;;82.97;53.30;;;;;;;;;;5105641;28;20085;-42
2024/03/28 11:44:21;;;;;;;63.83;53.97;;;;;;;;;;5105953;28;20333;-46
2024/03/28 11:46:48;;;;;;;57.88;51.58;;;;;;;;;;5105683;28;20047;-43
2024/03/28 11:49:21;;;;;;;58.50;52.13;;;;;;;;;;5105698;28;20105;-50
2024/03/28 11:51:47;;;;;;;57.03;50.90;;;;;;;;;;5099028;28;20024;-49
2024/03/28 11:54:17;;;;;;;57.45;51.13;;;;;;;;;;5096780;28;20031;-54
2024/03/28 11:56:44;;;;;;;57.85;51.65;;;;;;;;;;5105715;28;20039;-49
2024/03/28 11:59:24;;;;;;;56.90;51.30;;;;;;;;;;5105583;28;20028;-49
2024/03/28 12:02:01;;;;;;;56.10;50.33;;;;;;;;;;5105228;28;20020;-46
2024/03/28 12:04:29;;;;;;;56.80;51.00;;;;;;;;;;5105516;28;20031;-43
2024/03/28 12:06:58;;;;;;;54.92;49.33;;;;;;;;;;5104424;28;20241;-53
2024/03/28 12:09:25;;;;;;;57.35;51.85;;;;;;;;;;5094059;28;20033;-44
2024/03/28 12:11:55;;;;;;;506.13;463.67;;;;;;;;;;5084866;28;20027;-40
2024/03/28 12:14:22;;;;;;;166.07;150.93;;;;;;;;;;5084856;28;20028;-39
2024/03/28 12:16:49;;;;;;;144.57;130.75;;;;;;;;;;5084737;28;20025;-45
2024/03/28 12:19:25;;;;;;;120.13;108.93;;;;;;;;;;5084698;28;20250;-45
2024/03/28 12:21:52;;;;;;;106.28;96.53;;;;;;;;;;5084530;28;20021;-41
2024/03/28 12:24:19;;;;;;;87.53;79.45;;;;;;;;;;5084801;28;20312;-41
2024/03/28 12:26:46;;;;;;;87.25;79.03;;;;;;;;;;5084923;28;20062;-54
2024/03/28 12:29:13;;;;;;;77.00;69.43;;;;;;;;;;5084477;28;20162;-46
2024/03/28 12:31:40;;;;;;;75.72;68.53;;;;;;;;;;5085415;28;20031;-49
2024/03/28 12:34:10;;;;;;;67.28;60.67;;;;;;;;;;5084496;28;20096;-43
2024/03/28 12:36:37;;;;;;;69.70;62.67;;;;;;;;;;5084690;28;20035;-43
2024/03/28 12:39:04;;;;;;;65.15;58.85;;;;;;;;;;5083789;28;20186;-39
2024/03/28 12:41:31;;;;;;;65.53;59.25;;;;;;;;;;5084563;28;20329;-41
2024/03/28 12:43:58;;;;;;;65.32;58.83;;;;;;;;;;5094579;28;20032;-46
2024/03/28 12:46:25;;;;;;;66.80;60.17;;;;;;;;;;5084711;28;20019;-39
2024/03/28 12:48:52;;;;;;;64.80;58.70;;;;;;;;;;5084289;28;20020;-36
2024/03/28 12:51:19;;;;;;;64.22;57.90;;;;;;;;;;5083939;28;20016;-39
2024/03/28 12:53:45;;;;;;;62.60;56.55;;;;;;;;;;5084439;28;20028;-38
2024/03/28 12:56:13;;;;;;;61.67;55.55;;;;;;;;;;5084507;28;20020;-40
2024/03/28 12:58:40;;;;;;;61.80;55.90;;;;;;;;;;5083956;28;20032;-41
2024/03/28 13:01:06;;;;;;;62.58;56.65;;;;;;;;;;5084253;28;20017;-40
2024/03/28 13:03:33;;;;;;;59.63;53.65;;;;;;;;;;5084042;28;20024;-45
2024/03/28 13:06:00;;;;;;;60.38;54.22;;;;;;;;;;5083897;28;20071;-47
2024/03/28 13:08:26;;;;;;;60.30;54.20;;;;;;;;;;5084096;28;20062;-41
2024/03/28 13:10:53;;;;;;;59.95;54.25;;;;;;;;;;5088606;28;20024;-39
2024/03/28 13:13:20;;;;;;;60.40;54.55;;;;;;;;;;5090563;28;20092;-50
2024/03/28 13:15:47;;;;;;;58.13;52.70;;;;;;;;;;5083925;28;20100;-51
2024/03/28 13:18:13;;;;;;;58.70;52.83;;;;;;;;;;5084052;28;20021;-45
2024/03/28 13:20:40;;;;;;;58.72;52.92;;;;;;;;;;5083618;28;20024;-48
2024/03/28 13:23:06;;;;;;;59.25;53.45;;;;;;;;;;5083886;28;20043;-47
2024/03/28 13:25:33;;;;;;;58.53;53.08;;;;;;;;;;5084312;28;20025;-39
2024/03/28 13:27:59;;;;;;;58.38;52.85;;;;;;;;;;5083595;28;20024;-45
2024/03/28 13:30:26;;;;;;;57.95;52.42;;;;;;;;;;5083786;28;20051;-44
2024/03/28 13:32:53;;;;;;;58.28;52.47;;;;;;;;;;5083733;28;20193;-46
2024/03/28 13:35:20;;;;;;;56.85;51.10;;;;;;;;;;5084012;28;20238;-39
2024/03/28 13:37:46;;;;;;;60.05;53.83;;;;;;;;;;5083584;28;20339;-46
2024/03/28 13:40:13;;;;;;;58.63;53.00;;;;;;;;;;5084240;28;20300;-42
2024/03/28 13:42:39;;;;;;;59.05;53.08;;;;;;;;;;5083481;28;20020;-40
2024/03/28 13:45:08;;;;;;;61.22;54.85;;;;;;;;;;5084033;28;20061;-38
2024/03/28 13:47:34;;;;;;;59.47;53.92;;;;;;;;;;5095314;28;20342;-42
2024/03/28 13:50:01;;;;;;;58.75;52.95;;;;;;;;;;5088635;28;20301;-41
2024/03/28 13:52:27;;;;;;;60.83;54.95;;;;;;;;;;5095438;28;20312;-39
2024/03/28 13:54:54;;;;;;;66.32;55.70;;;;;;;;;;5094388;28;20296;-44
2024/03/28 13:57:21;;;;;;;61.40;54.72;;;;;;;;;;5093765;28;20035;-40
2024/03/28 13:59:47;;;;;;;61.97;54.90;;;;;;;;;;5092193;28;20346;-44
2024/03/28 14:02:14;;;;;;;65.47;58.70;;;;;;;;;;5104906;28;20029;-37
2024/03/28 14:04:41;;;;;;;65.60;58.85;;;;;;;;;;5102921;28;20086;-39
2024/03/28 14:07:07;;;;;;;65.47;58.90;;;;;;;;;;5098843;28;20012;-41
2024/03/28 14:09:34;;;;;;;68.55;61.92;;;;;;;;;;5104910;28;20323;-40
2024/03/28 14:12:00;;;;;;;69.63;63.08;;;;;;;;;;5107644;28;20311;-40
2024/03/28 14:14:27;;;;;;;70.97;63.90;;;;;;;;;;5107506;28;20032;-39
2024/03/28 14:16:54;;;;;;;72.45;65.32;;;;;;;;;;5099773;28;20024;-38
2024/03/28 14:19:20;;;;;;;71.35;64.25;;;;;;;;;;5096004;28;20091;-39
2024/03/28 14:21:47;;;;;;;72.68;65.68;;;;;;;;;;5086846;28;20016;-40